Kaliakra, Bulgaria

12:24 PM EEST on September 04, 2015 (GMT +0300)
Ocean Endeavor | | Change Station
CLOSE
Current Station
Personal Weather Station
Location: Romania,
Elevation: 0 ft
Nearby Weather Stations

Elev 0 ft 43.51 °N, 28.87 °E | Updated 4 minutes ago

Partly Cloudy
Partly Cloudy
74.5 °F
Feels Like 75 °F
N
5.0
Wind Variable Wind from NNE
Gusts 6.0 mph

Today
High -- | Low -- °F
--% Chance of Precip.
Yesterday
High -- | Low -- °F
Precip. -- in
6:32 AM 7:36 PM
Waning Gibbous, 61% visible
Pressure 29.92 in
Visibility 6.2 miles
Clouds Few 1800 ft
Heat Index 75 °F
Dew Point 68 °F
Humidity 80%
Rainfall 0.00 in
Snow Depth Not available.
UV 7 out of 12
Pollen Not available.
Air Quality Not available.
Flu Activity Not available.
METAR LBWN 040900Z 09005KT 010V160 9999 FEW018 26/21 Q1013 NOSIG
Pressure 29.92 in
Visibility 6.2 miles
Clouds Few 1800 ft
Heat Index 75 °F
Dew Point 68 °F
Humidity 80%
Rainfall 0.00 in
Snow Depth Not available.
UV 7 out of 12
Pollen Not available.
Air Quality Not available.
Flu Activity Not available.
METAR LBWN 040900Z 09005KT 010V160 9999 FEW018 26/21 Q1013 NOSIG

10-Day Weather Forecast

×

Almanac

Astronomy

Sep. 04, 2015 Rise Set
Actual Time
Civil Twilight
Nautical Twilight
Astronomical Twilight
Moon
Length of Visible Light
Length of Day
Tomorrow will be .
, % of the Moon is Illuminated

Today's Extremes

Country Highs Country Lows

Community

WunderPhotos

Upload Photos

1,852,142 photos uploaded!

WunderBlogs® & News

Nearby

Air Quality

  Air Quality AQ Index Pollutant
Not available.

Snow Depth

Station Depth Elevation

Earthquake Activity

City Distance Mag. Time & Date
Minimum magnitude displayed is 2.5.

Coastal Water Temperatures

Place Temperature

Stations

Nearby Weather Stations

Station Location Temp. Windchill Dew Point Humidity Wind Precip. Elev Updated Type